RJBB/KIX METAR and TAF weather

Enter ICAO airport designator
Station Type Date Time Source
RJBB METAR 2020/09/18 19:30 UTC NOAA

RJBB 181930Z AUTO 08007KT 9999 FEW033 BKN038 BKN040 23/20 Q1013 NOSIG


Station Type Date Time Source
RJBB Decoded METAR 2020/09/18 19:30 UTC NOAA

Kansai International Airport, Japan (RJBB) 34-25N 135-15E 8M
Sep 18, 2020 - 03:30 PM EDT / 2020.09.18 1930 UTC
Wind: from the E (080 degrees) at 8 MPH (7 KT):0
Visibility: greater than 7 mile(s):0
Sky conditions: mostly cloudy
Temperature: 73 F (23 C)
Dew Point: 68 F (20 C)
Relative Humidity: 83%
Pressure (altimeter): 29.91 in. Hg (1013 hPa)
ob: RJBB 181930Z AUTO 08007KT 9999 FEW033 BKN038 BKN040 23/20 Q1013 NOSIG
cycle: 19

Station Type Date Time Source
RJBB TAF 2020/09/18 18:12 UTC NOAA

TAF RJBB 181706Z 1818/2000 03007KT 9999 FEW020 SCT045
BECMG 1900/1902 27005KT
BECMG 1909/1912 07012KT

Example: see airport list